sensor_id;sensor_type;location;lat;lon;timestamp;pressure;altitude;pressure_sealevel;temperature;humidity
39954;BME280;25631;51.516;-0.470;2023-04-12T00:00:36;99542.30;;;6.76;44.18
39954;BME280;25631;51.516;-0.470;2023-04-12T00:03:13;99536.49;;;6.58;44.15
39954;BME280;25631;51.516;-0.470;2023-04-12T00:05:49;99541.33;;;7.00;43.98
39954;BME280;25631;51.516;-0.470;2023-04-12T00:08:26;99529.81;;;7.11;43.83
39954;BME280;25631;51.516;-0.470;2023-04-12T00:11:02;99538.51;;;7.07;43.87
39954;BME280;25631;51.516;-0.470;2023-04-12T00:13:39;99529.64;;;6.83;44.01
39954;BME280;25631;51.516;-0.470;2023-04-12T00:16:15;99528.21;;;6.65;43.88
39954;BME280;25631;51.516;-0.470;2023-04-12T00:18:52;99519.57;;;6.74;44.03
39954;BME280;25631;51.516;-0.470;2023-04-12T00:21:28;99521.59;;;7.04;44.05
39954;BME280;25631;51.516;-0.470;2023-04-12T00:24:05;99517.81;;;7.01;43.94
39954;BME280;25631;51.516;-0.470;2023-04-12T00:26:42;99512.65;;;6.75;43.76
39954;BME280;25631;51.516;-0.470;2023-04-12T00:29:18;99500.12;;;6.89;43.67
39954;BME280;25631;51.516;-0.470;2023-04-12T00:31:55;99500.54;;;7.10;43.65
39954;BME280;25631;51.516;-0.470;2023-04-12T00:34:31;99493.85;;;6.93;43.43
39954;BME280;25631;51.516;-0.470;2023-04-12T00:37:08;99509.49;;;7.14;43.28
39954;BME280;25631;51.516;-0.470;2023-04-12T00:39:45;99511.16;;;7.38;43.03
39954;BME280;25631;51.516;-0.470;2023-04-12T00:42:21;99500.24;;;6.88;43.49
39954;BME280;25631;51.516;-0.470;2023-04-12T00:44:58;99510.11;;;7.26;43.20
39954;BME280;25631;51.516;-0.470;2023-04-12T00:47:34;99509.78;;;6.45;42.70
39954;BME280;25631;51.516;-0.470;2023-04-12T00:50:12;99512.12;;;6.32;41.48
39954;BME280;25631;51.516;-0.470;2023-04-12T00:52:49;99528.34;;;6.51;41.62
39954;BME280;25631;51.516;-0.470;2023-04-12T00:55:26;99521.08;;;6.39;41.14
39954;BME280;25631;51.516;-0.470;2023-04-12T00:58:03;99531.78;;;6.39;40.68
39954;BME280;25631;51.516;-0.470;2023-04-12T01:00:39;99529.67;;;6.24;40.20
39954;BME280;25631;51.516;-0.470;2023-04-12T01:03:16;99527.27;;;6.28;40.09
39954;BME280;25631;51.516;-0.470;2023-04-12T01:06:03;99530.23;;;6.28;39.84
39954;BME280;25631;51.516;-0.470;2023-04-12T01:08:52;99529.91;;;6.39;39.62
39954;BME280;25631;51.516;-0.470;2023-04-12T01:11:38;99530.40;;;6.02;39.39
39954;BME280;25631;51.516;-0.470;2023-04-12T01:14:20;99522.10;;;6.22;39.29
39954;BME280;25631;51.516;-0.470;2023-04-12T01:17:03;99525.61;;;6.51;39.29
39954;BME280;25631;51.516;-0.470;2023-04-12T01:19:52;99520.59;;;6.65;38.90
39954;BME280;25631;51.516;-0.470;2023-04-12T01:22:46;99508.53;;;6.57;39.13
39954;BME280;25631;51.516;-0.470;2023-04-12T01:25:37;99508.90;;;6.80;39.19
39954;BME280;25631;51.516;-0.470;2023-04-12T01:28:17;99512.31;;;5.99;39.34
39954;BME280;25631;51.516;-0.470;2023-04-12T01:30:55;99516.81;;;6.19;39.40
39954;BME280;25631;51.516;-0.470;2023-04-12T01:33:33;99512.41;;;6.20;39.43
39954;BME280;25631;51.516;-0.470;2023-04-12T01:36:14;99516.10;;;6.22;39.36
39954;BME280;25631;51.516;-0.470;2023-04-12T01:38:51;99511.02;;;6.42;39.25
39954;BME280;25631;51.516;-0.470;2023-04-12T01:41:30;99508.48;;;6.45;39.26
39954;BME280;25631;51.516;-0.470;2023-04-12T01:44:07;99511.10;;;6.31;39.23
39954;BME280;25631;51.516;-0.470;2023-04-12T01:46:44;99517.29;;;6.61;39.27
39954;BME280;25631;51.516;-0.470;2023-04-12T01:49:23;99514.59;;;6.46;39.28
39954;BME280;25631;51.516;-0.470;2023-04-12T01:52:06;99510.17;;;6.55;39.25
39954;BME280;25631;51.516;-0.470;2023-04-12T01:54:48;99509.37;;;6.76;39.23
39954;BME280;25631;51.516;-0.470;2023-04-12T01:57:26;99508.62;;;6.61;39.37
39954;BME280;25631;51.516;-0.470;2023-04-12T02:00:03;99520.08;;;6.47;39.47
39954;BME280;25631;51.516;-0.470;2023-04-12T02:02:40;99522.65;;;6.50;39.59
39954;BME280;25631;51.516;-0.470;2023-04-12T02:05:17;99518.40;;;6.73;39.52
39954;BME280;25631;51.516;-0.470;2023-04-12T02:07:55;99517.59;;;6.02;39.44
39954;BME280;25631;51.516;-0.470;2023-04-12T02:10:33;99517.56;;;6.01;39.44
39954;BME280;25631;51.516;-0.470;2023-04-12T02:13:09;99511.94;;;5.70;39.36
39954;BME280;25631;51.516;-0.470;2023-04-12T02:15:46;99507.85;;;5.88;39.23
39954;BME280;25631;51.516;-0.470;2023-04-12T02:18:23;99508.87;;;6.37;38.78
39954;BME280;25631;51.516;-0.470;2023-04-12T02:20:59;99499.25;;;6.13;38.76
39954;BME280;25631;51.516;-0.470;2023-04-12T02:23:36;99498.20;;;6.27;38.48
39954;BME280;25631;51.516;-0.470;2023-04-12T02:26:12;99499.09;;;6.05;38.36
39954;BME280;25631;51.516;-0.470;2023-04-12T02:28:49;99496.60;;;6.61;38.19
39954;BME280;25631;51.516;-0.470;2023-04-12T02:31:25;99493.99;;;6.37;38.37
39954;BME280;25631;51.516;-0.470;2023-04-12T02:34:02;99496.09;;;6.20;38.29
39954;BME280;25631;51.516;-0.470;2023-04-12T02:36:38;99491.93;;;6.11;38.21
39954;BME280;25631;51.516;-0.470;2023-04-12T02:39:15;99495.97;;;5.89;38.37
39954;BME280;25631;51.516;-0.470;2023-04-12T02:41:52;99492.14;;;5.95;38.26
39954;BME280;25631;51.516;-0.470;2023-04-12T02:44:28;99493.25;;;6.43;38.26
39954;BME280;25631;51.516;-0.470;2023-04-12T02:47:05;99487.22;;;6.29;38.45
39954;BME280;25631;51.516;-0.470;2023-04-12T02:49:41;99487.78;;;6.31;38.36
39954;BME280;25631;51.516;-0.470;2023-04-12T02:52:18;99486.46;;;6.05;38.35
39954;BME280;25631;51.516;-0.470;2023-04-12T02:54:55;99483.18;;;6.25;38.20
39954;BME280;25631;51.516;-0.470;2023-04-12T02:57:32;99481.33;;;6.32;38.15
39954;BME280;25631;51.516;-0.470;2023-04-12T03:00:09;99487.16;;;6.39;38.10
39954;BME280;25631;51.516;-0.470;2023-04-12T03:02:47;99485.66;;;6.37;38.08
39954;BME280;25631;51.516;-0.470;2023-04-12T03:05:24;99484.46;;;6.48;38.04
39954;BME280;25631;51.516;-0.470;2023-04-12T03:08:00;99479.27;;;6.07;38.22
39954;BME280;25631;51.516;-0.470;2023-04-12T03:10:37;99479.51;;;5.92;38.16
39954;BME280;25631;51.516;-0.470;2023-04-12T03:13:13;99480.66;;;6.21;38.12
39954;BME280;25631;51.516;-0.470;2023-04-12T03:15:55;99475.33;;;6.40;38.10
39954;BME280;25631;51.516;-0.470;2023-04-12T03:18:32;99468.59;;;6.38;38.12
39954;BME280;25631;51.516;-0.470;2023-04-12T03:21:08;99467.28;;;6.20;38.03
39954;BME280;25631;51.516;-0.470;2023-04-12T03:23:45;99465.04;;;6.24;38.18
39954;BME280;25631;51.516;-0.470;2023-04-12T03:26:21;99459.69;;;6.06;38.21
39954;BME280;25631;51.516;-0.470;2023-04-12T03:29:00;99463.54;;;5.68;37.83
39954;BME280;25631;51.516;-0.470;2023-04-12T03:31:36;99464.99;;;5.59;38.14
39954;BME280;25631;51.516;-0.470;2023-04-12T03:34:13;99461.52;;;5.44;38.04
39954;BME280;25631;51.516;-0.470;2023-04-12T03:36:49;99466.81;;;5.50;38.12
39954;BME280;25631;51.516;-0.470;2023-04-12T03:39:26;99464.64;;;5.72;37.89
39954;BME280;25631;51.516;-0.470;2023-04-12T03:42:02;99464.11;;;5.62;37.87
39954;BME280;25631;51.516;-0.470;2023-04-12T03:44:39;99464.60;;;5.59;37.94
39954;BME280;25631;51.516;-0.470;2023-04-12T03:47:16;99458.86;;;5.45;38.04
39954;BME280;25631;51.516;-0.470;2023-04-12T03:49:54;99449.45;;;5.60;37.99
39954;BME280;25631;51.516;-0.470;2023-04-12T03:52:31;99446.52;;;5.25;38.07
39954;BME280;25631;51.516;-0.470;2023-04-12T03:55:08;99444.16;;;5.58;37.96
39954;BME280;25631;51.516;-0.470;2023-04-12T03:57:44;99440.68;;;5.57;38.02
39954;BME280;25631;51.516;-0.470;2023-04-12T04:00:21;99434.02;;;5.44;38.17
39954;BME280;25631;51.516;-0.470;2023-04-12T04:02:58;99431.78;;;5.44;38.15
39954;BME280;25631;51.516;-0.470;2023-04-12T04:05:35;99427.54;;;5.23;38.25
39954;BME280;25631;51.516;-0.470;2023-04-12T04:08:12;99430.76;;;5.03;38.38
39954;BME280;25631;51.516;-0.470;2023-04-12T04:10:48;99436.33;;;4.92;38.42
39954;BME280;25631;51.516;-0.470;2023-04-12T04:13:25;99434.46;;;5.16;38.48
39954;BME280;25631;51.516;-0.470;2023-04-12T04:16:03;99435.43;;;4.82;38.64
39954;BME280;25631;51.516;-0.470;2023-04-12T04:18:40;99431.41;;;5.33;38.60
39954;BME280;25631;51.516;-0.470;2023-04-12T04:21:17;99431.49;;;5.22;38.65
39954;BME280;25631;51.516;-0.470;2023-04-12T04:23:53;99430.90;;;4.81;38.87
39954;BME280;25631;51.516;-0.470;2023-04-12T04:26:30;99430.63;;;4.56;38.97
39954;BME280;25631;51.516;-0.470;2023-04-12T04:29:06;99436.98;;;4.42;39.06
39954;BME280;25631;51.516;-0.470;2023-04-12T04:31:42;99430.29;;;4.75;39.12
39954;BME280;25631;51.516;-0.470;2023-04-12T04:34:19;99431.59;;;4.48;39.17
39954;BME280;25631;51.516;-0.470;2023-04-12T04:36:55;99432.12;;;5.02;39.14
39954;BME280;25631;51.516;-0.470;2023-04-12T04:39:31;99432.84;;;4.79;39.15
39954;BME280;25631;51.516;-0.470;2023-04-12T04:42:08;99431.65;;;4.77;39.16
39954;BME280;25631;51.516;-0.470;2023-04-12T04:44:44;99431.53;;;4.90;39.35
39954;BME280;25631;51.516;-0.470;2023-04-12T04:47:21;99433.77;;;4.92;39.48
39954;BME280;25631;51.516;-0.470;2023-04-12T04:49:59;99433.11;;;4.69;39.50
39954;BME280;25631;51.516;-0.470;2023-04-12T04:52:35;99432.27;;;5.49;39.61
39954;BME280;25631;51.516;-0.470;2023-04-12T04:55:12;99439.54;;;4.60;39.76
39954;BME280;25631;51.516;-0.470;2023-04-12T04:57:48;99436.86;;;4.77;39.81
39954;BME280;25631;51.516;-0.470;2023-04-12T05:00:25;99434.36;;;4.78;39.95
39954;BME280;25631;51.516;-0.470;2023-04-12T05:03:01;99429.41;;;4.58;40.01
39954;BME280;25631;51.516;-0.470;2023-04-12T05:05:38;99424.11;;;4.82;40.07
39954;BME280;25631;51.516;-0.470;2023-04-12T05:08:15;99432.27;;;4.60;40.07
39954;BME280;25631;51.516;-0.470;2023-04-12T05:10:53;99438.30;;;5.12;40.10
39954;BME280;25631;51.516;-0.470;2023-04-12T05:13:30;99436.33;;;4.43;40.19
39954;BME280;25631;51.516;-0.470;2023-04-12T05:16:07;99437.58;;;4.51;40.36
39954;BME280;25631;51.516;-0.470;2023-04-12T05:18:44;99439.65;;;4.58;40.42
39954;BME280;25631;51.516;-0.470;2023-04-12T05:21:20;99430.63;;;4.98;40.46
39954;BME280;25631;51.516;-0.470;2023-04-12T05:23:57;99428.20;;;4.55;40.46
39954;BME280;25631;51.516;-0.470;2023-04-12T05:26:33;99423.26;;;4.42;40.45
39954;BME280;25631;51.516;-0.470;2023-04-12T05:29:10;99416.33;;;4.51;40.30
39954;BME280;25631;51.516;-0.470;2023-04-12T05:31:46;99412.28;;;4.68;40.20
39954;BME280;25631;51.516;-0.470;2023-04-12T05:34:23;99409.28;;;4.40;40.17
39954;BME280;25631;51.516;-0.470;2023-04-12T05:36:59;99406.00;;;4.15;40.20
39954;BME280;25631;51.516;-0.470;2023-04-12T05:39:36;99413.39;;;4.58;40.35
39954;BME280;25631;51.516;-0.470;2023-04-12T05:42:12;99412.23;;;4.44;40.34
39954;BME280;25631;51.516;-0.470;2023-04-12T05:44:49;99416.62;;;4.36;40.35
39954;BME280;25631;51.516;-0.470;2023-04-12T05:47:25;99419.20;;;4.22;40.18
39954;BME280;25631;51.516;-0.470;2023-04-12T05:50:02;99412.18;;;4.25;40.31
39954;BME280;25631;51.516;-0.470;2023-04-12T05:52:39;99417.02;;;4.29;40.45
39954;BME280;25631;51.516;-0.470;2023-04-12T05:55:15;99406.31;;;4.54;40.59
39954;BME280;25631;51.516;-0.470;2023-04-12T05:57:51;99405.18;;;4.31;40.68
39954;BME280;25631;51.516;-0.470;2023-04-12T06:00:28;99400.88;;;4.02;40.65
39954;BME280;25631;51.516;-0.470;2023-04-12T06:03:04;99396.70;;;4.28;40.47
39954;BME280;25631;51.516;-0.470;2023-04-12T06:05:41;99406.27;;;4.30;40.31
39954;BME280;25631;51.516;-0.470;2023-04-12T06:08:17;99400.28;;;4.19;40.18
39954;BME280;25631;51.516;-0.470;2023-04-12T06:10:54;99392.61;;;4.38;40.08
39954;BME280;25631;51.516;-0.470;2023-04-12T06:13:30;99391.58;;;4.29;40.24
39954;BME280;25631;51.516;-0.470;2023-04-12T06:16:07;99386.26;;;4.23;40.07
39954;BME280;25631;51.516;-0.470;2023-04-12T06:18:44;99383.84;;;4.53;39.76
39954;BME280;25631;51.516;-0.470;2023-04-12T06:21:21;99388.97;;;4.56;39.60
39954;BME280;25631;51.516;-0.470;2023-04-12T06:23:57;99393.00;;;4.58;39.45
39954;BME280;25631;51.516;-0.470;2023-04-12T06:26:35;99395.01;;;4.86;39.47
39954;BME280;25631;51.516;-0.470;2023-04-12T06:29:12;99393.66;;;4.92;39.26
39954;BME280;25631;51.516;-0.470;2023-04-12T06:31:48;99392.06;;;4.68;39.43
39954;BME280;25631;51.516;-0.470;2023-04-12T06:34:25;99401.81;;;4.65;39.57
39954;BME280;25631;51.516;-0.470;2023-04-12T06:37:02;99401.78;;;4.73;39.65
39954;BME280;25631;51.516;-0.470;2023-04-12T06:39:39;99396.87;;;4.76;39.54
39954;BME280;25631;51.516;-0.470;2023-04-12T06:42:16;99386.18;;;4.73;39.61
39954;BME280;25631;51.516;-0.470;2023-04-12T06:44:53;99375.98;;;4.62;39.63
39954;BME280;25631;51.516;-0.470;2023-04-12T06:47:30;99375.97;;;4.56;39.52
39954;BME280;25631;51.516;-0.470;2023-04-12T06:50:07;99372.02;;;4.52;39.52
39954;BME280;25631;51.516;-0.470;2023-04-12T06:52:44;99373.97;;;4.55;39.64
39954;BME280;25631;51.516;-0.470;2023-04-12T06:55:20;99370.68;;;4.40;39.78
39954;BME280;25631;51.516;-0.470;2023-04-12T06:57:57;99363.83;;;4.62;39.80
39954;BME280;25631;51.516;-0.470;2023-04-12T07:00:34;99356.61;;;4.50;39.86
39954;BME280;25631;51.516;-0.470;2023-04-12T07:03:11;99354.14;;;4.46;39.93
39954;BME280;25631;51.516;-0.470;2023-04-12T07:05:47;99350.45;;;4.66;39.94
39954;BME280;25631;51.516;-0.470;2023-04-12T07:08:24;99348.97;;;4.51;40.00
39954;BME280;25631;51.516;-0.470;2023-04-12T07:11:00;99352.31;;;4.53;40.02
39954;BME280;25631;51.516;-0.470;2023-04-12T07:13:37;99350.21;;;4.78;39.95
39954;BME280;25631;51.516;-0.470;2023-04-12T07:16:13;99346.62;;;4.42;40.34
39954;BME280;25631;51.516;-0.470;2023-04-12T07:18:50;99343.87;;;4.40;40.17
39954;BME280;25631;51.516;-0.470;2023-04-12T07:21:26;99347.60;;;4.63;40.13
39954;BME280;25631;51.516;-0.470;2023-04-12T07:24:03;99348.64;;;4.83;40.13
39954;BME280;25631;51.516;-0.470;2023-04-12T07:26:40;99348.39;;;4.99;39.96
39954;BME280;25631;51.516;-0.470;2023-04-12T07:29:16;99351.31;;;5.06;39.83
39954;BME280;25631;51.516;-0.470;2023-04-12T07:31:53;99350.99;;;5.32;39.74
39954;BME280;25631;51.516;-0.470;2023-04-12T07:34:29;99351.24;;;5.06;39.74
39954;BME280;25631;51.516;-0.470;2023-04-12T07:37:06;99347.63;;;5.31;39.50
39954;BME280;25631;51.516;-0.470;2023-04-12T07:39:42;99349.12;;;5.34;39.20
39954;BME280;25631;51.516;-0.470;2023-04-12T07:42:19;99347.43;;;5.03;39.10
39954;BME280;25631;51.516;-0.470;2023-04-12T07:44:55;99334.68;;;5.26;39.03
39954;BME280;25631;51.516;-0.470;2023-04-12T07:47:32;99335.72;;;5.40;38.96
39954;BME280;25631;51.516;-0.470;2023-04-12T07:50:09;99341.65;;;5.25;39.29
39954;BME280;25631;51.516;-0.470;2023-04-12T07:52:45;99338.22;;;5.25;39.29
39954;BME280;25631;51.516;-0.470;2023-04-12T07:55:22;99340.25;;;5.23;38.76
39954;BME280;25631;51.516;-0.470;2023-04-12T07:57:58;99330.83;;;5.33;38.74
39954;BME280;25631;51.516;-0.470;2023-04-12T08:00:35;99322.92;;;5.14;38.60
39954;BME280;25631;51.516;-0.470;2023-04-12T08:03:13;99313.40;;;4.93;37.96
39954;BME280;25631;51.516;-0.470;2023-04-12T08:05:51;99308.96;;;5.46;37.97
39954;BME280;25631;51.516;-0.470;2023-04-12T08:08:27;99307.24;;;5.68;38.02
39954;BME280;25631;51.516;-0.470;2023-04-12T08:11:04;99304.79;;;5.79;37.85
39954;BME280;25631;51.516;-0.470;2023-04-12T08:13:41;99301.15;;;5.49;37.58
39954;BME280;25631;51.516;-0.470;2023-04-12T08:16:17;99298.36;;;5.30;36.77
39954;BME280;25631;51.516;-0.470;2023-04-12T08:18:54;99291.40;;;5.03;36.73
39954;BME280;25631;51.516;-0.470;2023-04-12T08:21:30;99289.39;;;5.41;36.34
39954;BME280;25631;51.516;-0.470;2023-04-12T08:24:07;99288.25;;;5.31;35.90
39954;BME280;25631;51.516;-0.470;2023-04-12T08:26:44;99272.14;;;5.42;36.02
39954;BME280;25631;51.516;-0.470;2023-04-12T08:29:20;99269.36;;;4.93;35.77
39954;BME280;25631;51.516;-0.470;2023-04-12T08:31:57;99265.27;;;5.35;35.72
39954;BME280;25631;51.516;-0.470;2023-04-12T08:34:34;99272.28;;;5.49;35.83
39954;BME280;25631;51.516;-0.470;2023-04-12T08:37:11;99265.29;;;5.25;35.70
39954;BME280;25631;51.516;-0.470;2023-04-12T08:39:47;99258.57;;;5.72;35.75
39954;BME280;25631;51.516;-0.470;2023-04-12T08:42:23;99259.10;;;5.55;35.97
39954;BME280;25631;51.516;-0.470;2023-04-12T08:45:03;99265.43;;;5.79;36.05
39954;BME280;25631;51.516;-0.470;2023-04-12T08:47:42;99258.88;;;6.17;35.77
39954;BME280;25631;51.516;-0.470;2023-04-12T08:50:20;99251.45;;;6.10;36.35
39954;BME280;25631;51.516;-0.470;2023-04-12T08:52:57;99256.26;;;6.07;36.73
39954;BME280;25631;51.516;-0.470;2023-04-12T08:55:34;99250.64;;;5.49;36.79
39954;BME280;25631;51.516;-0.470;2023-04-12T08:58:13;99254.51;;;6.34;36.94
39954;BME280;25631;51.516;-0.470;2023-04-12T09:00:50;99252.03;;;5.34;35.75
39954;BME280;25631;51.516;-0.470;2023-04-12T09:03:27;99251.77;;;5.03;35.23
39954;BME280;25631;51.516;-0.470;2023-04-12T09:06:04;99246.27;;;5.04;35.43
39954;BME280;25631;51.516;-0.470;2023-04-12T09:08:57;99257.86;;;5.87;35.18
39954;BME280;25631;51.516;-0.470;2023-04-12T09:11:34;99247.15;;;5.26;34.86
39954;BME280;25631;51.516;-0.470;2023-04-12T09:14:26;99248.48;;;5.60;34.67
39954;BME280;25631;51.516;-0.470;2023-04-12T09:17:03;99244.69;;;5.26;34.61
39954;BME280;25631;51.516;-0.470;2023-04-12T09:19:39;99248.36;;;5.62;34.13
39954;BME280;25631;51.516;-0.470;2023-04-12T09:22:16;99234.82;;;5.78;32.12
39954;BME280;25631;51.516;-0.470;2023-04-12T09:24:53;99248.68;;;6.45;33.68
39954;BME280;25631;51.516;-0.470;2023-04-12T09:27:29;99251.87;;;6.34;34.98
39954;BME280;25631;51.516;-0.470;2023-04-12T09:30:20;99245.98;;;6.31;35.36
39954;BME280;25631;51.516;-0.470;2023-04-12T09:33:09;99237.32;;;6.36;34.45
39954;BME280;25631;51.516;-0.470;2023-04-12T09:35:46;99238.61;;;6.49;34.00
39954;BME280;25631;51.516;-0.470;2023-04-12T09:38:23;99226.55;;;6.86;34.00
39954;BME280;25631;51.516;-0.470;2023-04-12T09:41:15;99227.40;;;7.00;34.09
39954;BME280;25631;51.516;-0.470;2023-04-12T09:43:52;99239.39;;;6.85;33.27
39954;BME280;25631;51.516;-0.470;2023-04-12T09:56:28;99213.19;;;6.78;33.23
39954;BME280;25631;51.516;-0.470;2023-04-12T09:59:06;99196.66;;;6.99;32.87
39954;BME280;25631;51.516;-0.470;2023-04-12T10:01:42;99194.62;;;7.26;32.91
39954;BME280;25631;51.516;-0.470;2023-04-12T10:12:36;99183.59;;;6.42;30.22
39954;BME280;25631;51.516;-0.470;2023-04-12T10:15:14;99177.60;;;6.69;30.24
39954;BME280;25631;51.516;-0.470;2023-04-12T10:17:51;99176.54;;;6.76;30.79
39954;BME280;25631;51.516;-0.470;2023-04-12T10:20:28;99173.90;;;6.93;31.23
39954;BME280;25631;51.516;-0.470;2023-04-12T10:23:05;99168.76;;;7.33;31.44
39954;BME280;25631;51.516;-0.470;2023-04-12T10:25:45;99144.13;;;6.88;29.60
39954;BME280;25631;51.516;-0.470;2023-04-12T10:28:22;99140.02;;;7.81;28.98
39954;BME280;25631;51.516;-0.470;2023-04-12T10:30:59;99132.79;;;6.80;28.13
39954;BME280;25631;51.516;-0.470;2023-04-12T10:34:01;99129.93;;;7.02;27.58
39954;BME280;25631;51.516;-0.470;2023-04-12T10:36:50;99121.65;;;7.43;27.57
39954;BME280;25631;51.516;-0.470;2023-04-12T10:39:36;99115.79;;;6.93;27.89
39954;BME280;25631;51.516;-0.470;2023-04-12T10:52:20;99101.64;;;7.70;27.22
39954;BME280;25631;51.516;-0.470;2023-04-12T10:54:57;99104.50;;;7.61;26.99
39954;BME280;25631;51.516;-0.470;2023-04-12T10:58:02;99105.03;;;7.67;26.75
39954;BME280;25631;51.516;-0.470;2023-04-12T11:01:11;99094.11;;;7.35;25.64
39954;BME280;25631;51.516;-0.470;2023-04-12T11:04:21;99095.63;;;7.20;25.44
39954;BME280;25631;51.516;-0.470;2023-04-12T11:06:58;99101.63;;;7.51;26.30
39954;BME280;25631;51.516;-0.470;2023-04-12T11:09:41;99082.13;;;7.75;25.87
39954;BME280;25631;51.516;-0.470;2023-04-12T11:12:18;99086.21;;;7.29;25.80
39954;BME280;25631;51.516;-0.470;2023-04-12T11:14:59;99064.87;;;7.38;25.80
39954;BME280;25631;51.516;-0.470;2023-04-12T11:17:36;99066.84;;;7.88;26.22
39954;BME280;25631;51.516;-0.470;2023-04-12T11:20:12;99058.36;;;8.21;26.83
39954;BME280;25631;51.516;-0.470;2023-04-12T11:22:49;99044.33;;;8.22;26.79
39954;BME280;25631;51.516;-0.470;2023-04-12T11:25:28;99043.45;;;7.65;26.76
39954;BME280;25631;51.516;-0.470;2023-04-12T11:28:04;99043.19;;;7.14;26.77
39954;BME280;25631;51.516;-0.470;2023-04-12T11:30:48;99034.53;;;6.93;26.84
39954;BME280;25631;51.516;-0.470;2023-04-12T11:33:34;99023.65;;;7.01;27.41
39954;BME280;25631;51.516;-0.470;2023-04-12T11:36:11;99034.81;;;7.60;28.45
39954;BME280;25631;51.516;-0.470;2023-04-12T11:38:48;99045.75;;;7.06;29.48
39954;BME280;25631;51.516;-0.470;2023-04-12T11:41:25;99038.42;;;6.93;30.17
39954;BME280;25631;51.516;-0.470;2023-04-12T11:44:02;99035.55;;;6.86;30.52
39954;BME280;25631;51.516;-0.470;2023-04-12T11:46:40;99040.50;;;6.37;31.45
39954;BME280;25631;51.516;-0.470;2023-04-12T11:49:19;99049.03;;;6.81;31.24
39954;BME280;25631;51.516;-0.470;2023-04-12T11:52:04;99035.43;;;6.01;31.82
39954;BME280;25631;51.516;-0.470;2023-04-12T11:54:42;99030.86;;;6.47;32.15
39954;BME280;25631;51.516;-0.470;2023-04-12T11:57:19;98998.89;;;7.17;31.75
39954;BME280;25631;51.516;-0.470;2023-04-12T11:59:56;98979.60;;;8.10;31.32
39954;BME280;25631;51.516;-0.470;2023-04-12T12:02:33;98970.96;;;7.65;30.90
39954;BME280;25631;51.516;-0.470;2023-04-12T12:05:10;98954.83;;;7.46;31.54
39954;BME280;25631;51.516;-0.470;2023-04-12T12:07:46;98956.54;;;7.77;31.02
39954;BME280;25631;51.516;-0.470;2023-04-12T12:10:23;98973.37;;;7.42;31.31
39954;BME280;25631;51.516;-0.470;2023-04-12T12:12:59;98968.75;;;7.06;31.91
39954;BME280;25631;51.516;-0.470;2023-04-12T12:15:36;98958.48;;;7.99;31.85
39954;BME280;25631;51.516;-0.470;2023-04-12T12:18:12;98950.22;;;8.43;31.75
39954;BME280;25631;51.516;-0.470;2023-04-12T12:20:49;98945.32;;;8.28;31.43
39954;BME280;25631;51.516;-0.470;2023-04-12T12:23:28;98926.47;;;8.38;29.85
39954;BME280;25631;51.516;-0.470;2023-04-12T12:26:05;98925.09;;;7.99;29.30
39954;BME280;25631;51.516;-0.470;2023-04-12T12:28:41;98930.27;;;8.43;29.14
39954;BME280;25631;51.516;-0.470;2023-04-12T12:31:19;98918.12;;;7.43;29.41
39954;BME280;25631;51.516;-0.470;2023-04-12T12:33:57;98933.02;;;7.76;30.08
39954;BME280;25631;51.516;-0.470;2023-04-12T12:36:35;98921.06;;;7.02;30.53
39954;BME280;25631;51.516;-0.470;2023-04-12T12:39:12;98878.61;;;7.64;30.26
39954;BME280;25631;51.516;-0.470;2023-04-12T12:41:53;98897.65;;;7.81;30.60
39954;BME280;25631;51.516;-0.470;2023-04-12T12:44:30;98959.16;;;6.70;36.90
39954;BME280;25631;51.516;-0.470;2023-04-12T12:47:06;98944.85;;;5.56;39.45
39954;BME280;25631;51.516;-0.470;2023-04-12T12:49:43;98945.02;;;5.41;37.78
39954;BME280;25631;51.516;-0.470;2023-04-12T12:52:20;98934.22;;;4.98;38.34
39954;BME280;25631;51.516;-0.470;2023-04-12T12:54:56;98906.29;;;5.18;38.59
39954;BME280;25631;51.516;-0.470;2023-04-12T12:57:33;98905.12;;;5.66;38.45
39954;BME280;25631;51.516;-0.470;2023-04-12T13:00:11;98899.82;;;5.34;39.59
39954;BME280;25631;51.516;-0.470;2023-04-12T13:02:48;98890.75;;;5.75;39.31
39954;BME280;25631;51.516;-0.470;2023-04-12T13:05:25;98871.74;;;6.60;38.65
39954;BME280;25631;51.516;-0.470;2023-04-12T13:08:01;98884.22;;;5.84;38.79
39954;BME280;25631;51.516;-0.470;2023-04-12T13:10:38;98881.29;;;5.25;38.78
39954;BME280;25631;51.516;-0.470;2023-04-12T13:13:15;98838.82;;;6.13;38.49
39954;BME280;25631;51.516;-0.470;2023-04-12T13:15:51;98843.60;;;6.14;39.57
39954;BME280;25631;51.516;-0.470;2023-04-12T13:18:28;98854.97;;;6.09;39.37
39954;BME280;25631;51.516;-0.470;2023-04-12T13:21:05;98867.28;;;6.04;39.76
39954;BME280;25631;51.516;-0.470;2023-04-12T13:23:42;98880.20;;;5.75;40.36
39954;BME280;25631;51.516;-0.470;2023-04-12T13:26:18;98862.54;;;4.02;41.43
39954;BME280;25631;51.516;-0.470;2023-04-12T13:28:54;98866.70;;;4.16;42.16
39954;BME280;25631;51.516;-0.470;2023-04-12T13:31:31;98840.52;;;4.29;42.40
39954;BME280;25631;51.516;-0.470;2023-04-12T13:34:08;98847.15;;;4.48;42.15
39954;BME280;25631;51.516;-0.470;2023-04-12T13:36:44;98839.49;;;4.98;41.88
39954;BME280;25631;51.516;-0.470;2023-04-12T13:39:21;98850.09;;;4.64;41.63
39954;BME280;25631;51.516;-0.470;2023-04-12T13:41:57;98837.17;;;4.56;42.47
39954;BME280;25631;51.516;-0.470;2023-04-12T13:44:34;98843.25;;;4.00;43.53
39954;BME280;25631;51.516;-0.470;2023-04-12T13:47:10;98817.03;;;4.80;43.20
39954;BME280;25631;51.516;-0.470;2023-04-12T13:49:47;98815.73;;;4.38;43.34
39954;BME280;25631;51.516;-0.470;2023-04-12T13:52:24;98814.35;;;5.53;42.02
39954;BME280;25631;51.516;-0.470;2023-04-12T13:55:01;98805.75;;;5.75;41.50
39954;BME280;25631;51.516;-0.470;2023-04-12T13:57:37;98826.78;;;5.26;41.09
39954;BME280;25631;51.516;-0.470;2023-04-12T14:00:14;98812.37;;;5.34;40.41
39954;BME280;25631;51.516;-0.470;2023-04-12T14:02:51;98825.27;;;5.90;40.51
39954;BME280;25631;51.516;-0.470;2023-04-12T14:05:27;98811.61;;;5.98;40.83
39954;BME280;25631;51.516;-0.470;2023-04-12T14:08:04;98821.70;;;5.68;40.80
39954;BME280;25631;51.516;-0.470;2023-04-12T14:10:40;98795.86;;;5.16;40.56
39954;BME280;25631;51.516;-0.470;2023-04-12T14:13:17;98786.55;;;5.45;40.86
39954;BME280;25631;51.516;-0.470;2023-04-12T14:15:54;98775.98;;;5.15;40.93
39954;BME280;25631;51.516;-0.470;2023-04-12T14:18:30;98750.04;;;5.95;40.58
39954;BME280;25631;51.516;-0.470;2023-04-12T14:21:08;98745.51;;;5.38;40.09
39954;BME280;25631;51.516;-0.470;2023-04-12T14:23:45;98747.48;;;6.07;39.20